Eltham, Virginia
Current Conditions -  °F | °C
As of 3:15 AM on Sunday 21 Dec 2014 (Local Time) from KFYJ Reporting Station
Overcast Overcast  
Wind Chill: 36°   Ceiling: 8000
Heat Index: 36°   Visibility: 10mi
Dew Point: 30°   Wind: 0mph
Humidity: 78%   Direction: NA
Pressure: 30.33"   Gusts: NA
Location:  37.6069°N, 76.8926°W
Report Text: KFYJ 210815Z AUTO 00000KT 10SM OVC080 02/M01 A3033 RMK AO2 T00211013
Loading
Personal Weather Stations






























Interactive Weather Map New forecast layout! Learn more

10-Day Weather Forecast

Advertisements
Track Severe Weather on mobile